Time;durP1;ratioP1;P1;durP2;ratioP2;P2;SDS_P1;SDS_P2;PMS_P1;PMS_P2;Temp;Humidity;BMP_temperature;BMP_pressure;BME280_temperature;BME280_humidity;BME280_pressure;Samples;Min_cycle;Max_cycle;Signal;HPM_P1;HPM_P2
2022/08/18 00:02:14;;;;;;;21.50;14.52;;;19.00;99.90;;;;;;5029145;28;20484;-62
2022/08/18 00:04:40;;;;;;;22.27;13.93;;;18.90;99.90;;;;;;5031106;28;20037;-62
2022/08/18 00:07:09;;;;;;;22.13;13.50;;;18.90;99.90;;;;;;5028282;28;20159;-62
2022/08/18 00:09:36;;;;;;;18.92;13.13;;;18.80;99.90;;;;;;5030408;28;20445;-62
2022/08/18 00:12:06;;;;;;;21.38;13.32;;;18.90;99.90;;;;;;5030577;28;20037;-62
2022/08/18 00:14:32;;;;;;;22.80;14.07;;;18.90;99.90;;;;;;5029553;28;20026;-62
2022/08/18 00:16:57;;;;;;;24.92;13.30;;;18.90;99.90;;;;;;5032514;28;20113;-62
2022/08/18 00:19:24;;;;;;;23.40;13.82;;;18.90;99.90;;;;;;5028727;28;20041;-62
2022/08/18 00:21:50;;;;;;;22.77;13.85;;;18.90;99.90;;;;;;5029580;28;20167;-61
2022/08/18 00:24:16;;;;;;;18.77;13.48;;;19.00;99.90;;;;;;5027875;28;20061;-61
2022/08/18 00:26:41;;;;;;;20.42;13.63;;;19.00;99.90;;;;;;5035209;28;20445;-62
2022/08/18 00:29:07;;;;;;;20.67;13.05;;;19.00;99.90;;;;;;5036475;28;20102;-62
2022/08/18 00:31:33;;;;;;;27.83;15.20;;;19.00;99.90;;;;;;5045964;28;20105;-62
2022/08/18 00:33:59;;;;;;;23.83;14.43;;;18.90;99.90;;;;;;5031124;28;20453;-61
2022/08/18 00:36:25;;;;;;;25.42;14.65;;;18.90;99.90;;;;;;5025859;28;20022;-62
2022/08/18 00:38:51;;;;;;;21.67;13.18;;;18.90;99.90;;;;;;5029845;28;20026;-61
2022/08/18 00:41:17;;;;;;;23.55;15.30;;;18.90;99.90;;;;;;5029335;28;20029;-61
2022/08/18 00:43:49;;;;;;;23.88;14.52;;;19.00;99.90;;;;;;5030489;28;20851;-61
2022/08/18 00:46:21;;;;;;;21.38;13.45;;;19.10;99.90;;;;;;5028890;28;20058;-62
2022/08/18 00:48:48;;;;;;;21.50;14.00;;;19.00;99.90;;;;;;5031639;28;20030;-61
2022/08/18 00:51:35;;;;;;;22.17;14.18;;;18.90;99.90;;;;;;5028454;28;20033;-61
2022/08/18 00:54:18;;;;;;;21.63;14.48;;;18.90;99.90;;;;;;5026716;28;20053;-62
2022/08/18 00:56:50;;;;;;;21.75;13.63;;;18.90;99.90;;;;;;5030337;28;20029;-62
2022/08/18 00:59:30;;;;;;;23.00;14.48;;;18.80;99.90;;;;;;5034018;28;20044;-61
2022/08/18 01:02:01;;;;;;;;;;;18.90;99.90;;;;;;5045817;28;20064;-62
2022/08/18 01:04:54;;;;;;;26.10;14.27;;;19.00;99.90;;;;;;5036334;28;19962;-62
2022/08/18 01:07:29;;;;;;;21.85;13.02;;;19.00;99.90;;;;;;5029663;28;20524;-62
2022/08/18 01:09:59;;;;;;;19.85;13.70;;;19.10;99.90;;;;;;5028343;28;20029;-62
2022/08/18 01:12:26;;;;;;;;;;;19.20;99.90;;;;;;5030492;28;20033;-62
2022/08/18 01:14:52;;;;;;;22.48;14.75;;;19.20;99.90;;;;;;5027004;28;19909;-61
2022/08/18 01:22:50;;;;;;;28.02;16.42;;;18.90;99.90;;;;;;5025427;28;20099;-62
2022/08/18 01:28:05;;;;;;;22.60;14.32;;;18.50;99.90;;;;;;5026721;28;20041;-62
2022/08/18 01:30:33;;;;;;;26.70;15.82;;;18.50;99.90;;;;;;5025781;28;20029;-62
2022/08/18 01:32:59;;;;;;;28.33;17.08;;;18.50;99.90;;;;;;5029310;28;20026;-62
2022/08/18 01:35:26;;;;;;;23.13;15.10;;;18.50;99.90;;;;;;5030087;28;20357;-61
2022/08/18 01:37:53;;;;;;;23.73;16.02;;;18.50;99.90;;;;;;5029279;28;20029;-62
2022/08/18 01:40:21;;;;;;;25.00;16.40;;;18.60;99.90;;;;;;5032960;28;20030;-61
2022/08/18 01:42:47;;;;;;;28.92;18.50;;;18.70;99.90;;;;;;5029179;28;20034;-62
2022/08/18 01:45:15;;;;;;;26.77;16.77;;;18.80;99.90;;;;;;5038800;28;20051;-61
2022/08/18 01:47:41;;;;;;;33.00;18.50;;;18.80;99.90;;;;;;5026276;28;20034;-62
2022/08/18 01:50:09;;;;;;;26.75;17.90;;;18.80;99.90;;;;;;5030541;28;20043;-62
2022/08/18 01:52:36;;;;;;;35.33;18.98;;;18.70;99.90;;;;;;5028045;28;20542;-61
2022/08/18 01:55:03;;;;;;;25.42;18.00;;;18.70;99.90;;;;;;5029142;28;20049;-62
2022/08/18 01:57:29;;;;;;;31.23;18.67;;;18.80;99.90;;;;;;5027052;28;20033;-62
2022/08/18 01:59:55;;;;;;;33.47;18.08;;;18.80;99.90;;;;;;5028218;28;20487;-62
2022/08/18 02:02:26;;;;;;;31.73;19.35;;;18.90;99.90;;;;;;5029884;28;20388;-62
2022/08/18 02:04:58;;;;;;;27.63;17.90;;;18.90;99.90;;;;;;5028328;28;20030;-62
2022/08/18 02:07:24;;;;;;;29.27;18.60;;;18.90;99.90;;;;;;5023302;28;20033;-62
2022/08/18 02:09:49;;;;;;;32.10;18.50;;;18.90;99.90;;;;;;5042653;28;20395;-62
2022/08/18 02:12:15;;;;;;;29.63;18.27;;;18.90;99.90;;;;;;5030361;28;20025;-61
2022/08/18 02:14:42;;;;;;;28.08;17.67;;;18.80;99.90;;;;;;5030990;28;20025;-62
2022/08/18 02:17:10;;;;;;;27.13;18.08;;;18.80;99.90;;;;;;5027042;28;20076;-61
2022/08/18 02:19:41;;;;;;;26.55;16.92;;;18.90;99.90;;;;;;5026524;28;20063;-62
2022/08/18 02:22:09;;;;;;;30.30;17.30;;;18.80;99.90;;;;;;5028293;28;20079;-62
2022/08/18 02:24:36;;;;;;;30.98;17.52;;;18.80;99.90;;;;;;5026473;28;20056;-62
2022/08/18 02:27:02;;;;;;;31.08;18.65;;;18.80;99.90;;;;;;5025290;28;20108;-62
2022/08/18 02:29:27;;;;;;;26.05;17.17;;;18.80;99.90;;;;;;5036751;28;20476;-62
2022/08/18 02:31:53;;;;;;;28.73;17.98;;;18.80;99.90;;;;;;5028724;28;20039;-62
2022/08/18 02:34:19;;;;;;;30.10;18.77;;;18.70;99.90;;;;;;5030185;28;20021;-62
2022/08/18 02:36:45;;;;;;;26.52;17.40;;;18.60;99.90;;;;;;5027662;28;20037;-61
2022/08/18 02:39:10;;;;;;;30.05;18.25;;;18.50;99.90;;;;;;5029873;28;20514;-61
2022/08/18 02:41:36;;;;;;;32.45;17.83;;;18.50;99.90;;;;;;5028808;28;20041;-62
2022/08/18 02:44:03;;;;;;;27.42;17.80;;;18.40;99.90;;;;;;5030142;28;20035;-61
2022/08/18 02:46:29;;;;;;;30.80;19.58;;;18.40;99.90;;;;;;5042494;28;20060;-61
2022/08/18 02:48:55;;;;;;;31.88;18.70;;;18.40;99.90;;;;;;5030737;28;20029;-62
2022/08/18 02:51:21;;;;;;;29.13;17.48;;;18.50;99.90;;;;;;5026805;28;20033;-62
2022/08/18 02:53:47;;;;;;;26.20;18.17;;;18.50;99.90;;;;;;5027981;28;20201;-62
2022/08/18 02:56:23;;;;;;;30.27;18.48;;;18.50;99.90;;;;;;5026486;28;20064;-62
2022/08/18 02:58:52;;;;;;;33.40;18.27;;;18.60;99.90;;;;;;5024199;28;20696;-62
2022/08/18 03:01:22;;;;;;;31.52;19.75;;;18.60;99.90;;;;;;5037289;28;20099;-62
2022/08/18 03:03:49;;;;;;;34.33;19.50;;;18.60;99.90;;;;;;5048556;28;20043;-62
2022/08/18 03:06:16;;;;;;;26.50;17.40;;;18.60;99.90;;;;;;5024257;28;20036;-62
2022/08/18 03:08:42;;;;;;;31.52;20.67;;;18.60;99.90;;;;;;5027133;28;20044;-62
2022/08/18 03:11:08;;;;;;;36.17;21.58;;;18.60;99.90;;;;;;5027311;28;20113;-62
2022/08/18 03:13:34;;;;;;;36.85;20.80;;;18.50;99.90;;;;;;5021327;28;20376;-62
2022/08/18 03:16:00;;;;;;;32.47;20.98;;;18.40;99.90;;;;;;5021299;28;20044;-62
2022/08/18 03:18:25;;;;;;;38.47;22.13;;;18.30;99.90;;;;;;5025287;28;20029;-62
2022/08/18 03:20:51;;;;;;;42.05;22.48;;;18.30;99.90;;;;;;5025808;28;20037;-62
2022/08/18 03:23:17;;;;;;;36.50;23.55;;;18.20;99.90;;;;;;5025816;28;20479;-62
2022/08/18 03:25:48;;;;;;;41.15;24.13;;;18.20;99.90;;;;;;5026524;28;20029;-62
2022/08/18 03:28:14;;;;;;;;;;;18.20;99.90;;;;;;5022714;28;20138;-61
2022/08/18 03:30:40;;;;;;;43.55;24.27;;;18.20;99.90;;;;;;5030185;28;19917;-62
2022/08/18 03:33:06;;;;;;;40.88;24.17;;;18.20;99.90;;;;;;5025753;28;20029;-61
2022/08/18 03:35:35;;;;;;;43.67;26.02;;;18.10;99.90;;;;;;5024356;28;20041;-62
2022/08/18 03:38:02;;;;;;;39.15;23.95;;;18.10;99.90;;;;;;5036831;28;20464;-62
2022/08/18 03:40:28;;;;;;;40.47;24.92;;;18.20;99.90;;;;;;5028484;28;20675;-61
2022/08/18 03:42:54;;;;;;;44.00;24.88;;;18.20;99.90;;;;;;5028108;28;20053;-62
2022/08/18 03:45:21;;;;;;;40.65;24.15;;;18.10;99.90;;;;;;5027223;28;20435;-62
2022/08/18 03:47:49;;;;;;;44.67;25.13;;;18.10;99.90;;;;;;5030954;28;20029;-62
2022/08/18 03:50:15;;;;;;;42.42;25.67;;;18.10;99.90;;;;;;5027823;28;20037;-62
2022/08/18 03:52:41;;;;;;;40.97;23.33;;;18.10;99.90;;;;;;5029546;28;20159;-62
2022/08/18 03:55:07;;;;;;;41.25;23.85;;;18.10;99.90;;;;;;5027250;28;20048;-62
2022/08/18 03:57:32;;;;;;;40.50;24.25;;;18.20;99.90;;;;;;5008774;28;20072;-63
2022/08/18 03:59:59;;;;;;;39.47;23.90;;;18.10;99.90;;;;;;5027758;28;20057;-62
2022/08/18 04:02:25;;;;;;;46.15;24.50;;;18.10;99.90;;;;;;5019528;28;20038;-61
2022/08/18 04:04:50;;;;;;;39.85;24.10;;;18.10;99.90;;;;;;5024778;28;20043;-61
2022/08/18 04:07:17;;;;;;;43.42;24.50;;;18.00;99.90;;;;;;5020890;28;20056;-62
2022/08/18 04:09:44;;;;;;;42.40;23.67;;;18.00;99.90;;;;;;5032425;28;20063;-62
2022/08/18 04:12:12;;;;;;;41.13;24.70;;;18.00;99.90;;;;;;5027367;28;20048;-62
2022/08/18 04:14:40;;;;;;;46.72;23.58;;;18.00;99.90;;;;;;5028113;28;20043;-62
2022/08/18 04:17:07;;;;;;;41.83;23.60;;;18.00;99.90;;;;;;5028633;28;20426;-62
2022/08/18 04:19:33;;;;;;;38.63;23.42;;;18.00;99.90;;;;;;5028145;28;20034;-62
2022/08/18 04:22:02;;;;;;;37.03;22.20;;;18.00;99.90;;;;;;5027066;28;20037;-62
2022/08/18 04:24:29;;;;;;;35.05;21.63;;;18.00;99.90;;;;;;5026290;28;20407;-62
2022/08/18 04:26:56;;;;;;;37.78;21.35;;;18.00;99.90;;;;;;5025710;28;20029;-62
2022/08/18 04:29:23;;;;;;;34.28;20.55;;;18.00;99.90;;;;;;5026091;28;20104;-62
2022/08/18 04:31:50;;;;;;;31.02;19.98;;;18.00;99.90;;;;;;5025774;28;20033;-62
2022/08/18 04:34:17;;;;;;;35.80;20.92;;;18.10;99.90;;;;;;5028434;28;20053;-62
2022/08/18 04:36:43;;;;;;;32.08;19.95;;;18.10;99.90;;;;;;5027311;28;20491;-62
2022/08/18 04:39:10;;;;;;;34.83;20.88;;;18.10;99.90;;;;;;5024217;28;20040;-61
2022/08/18 04:41:38;;;;;;;33.72;20.20;;;18.10;99.90;;;;;;5023594;28;20037;-62
2022/08/18 04:44:07;;;;;;;35.35;21.20;;;18.00;99.90;;;;;;5025102;28;20405;-61
2022/08/18 04:46:42;;;;;;;37.45;21.73;;;17.90;99.90;;;;;;5024493;28;20152;-62
2022/08/18 04:49:09;;;;;;;36.58;21.73;;;17.90;99.90;;;;;;5028168;28;20029;-61
2022/08/18 04:51:38;;;;;;;37.15;21.75;;;17.90;99.90;;;;;;5026908;28;20195;-62
2022/08/18 04:54:04;;;;;;;32.90;21.05;;;17.90;99.90;;;;;;5026874;28;20036;-61
2022/08/18 04:56:33;;;;;;;36.20;22.42;;;17.90;99.90;;;;;;5025825;28;20029;-61
2022/08/18 04:58:59;;;;;;;37.80;22.00;;;17.90;99.90;;;;;;5029784;28;20041;-61
2022/08/18 05:01:29;;;;;;;38.72;22.77;;;17.90;99.90;;;;;;5028122;28;20041;-61
2022/08/18 05:03:57;;;;;;;40.65;23.02;;;17.90;99.90;;;;;;5027740;28;20203;-61
2022/08/18 05:06:25;;;;;;;39.50;23.90;;;17.90;99.90;;;;;;5039371;28;20498;-61
2022/08/18 05:08:59;;;;;;;40.72;24.02;;;17.90;99.90;;;;;;5027075;28;20033;-62
2022/08/18 05:11:27;;;;;;;39.55;23.83;;;17.90;99.90;;;;;;5034055;28;20029;-62
2022/08/18 05:13:56;;;;;;;40.85;23.52;;;17.90;99.90;;;;;;5032197;28;20072;-61
2022/08/18 05:16:23;;;;;;;41.33;21.60;;;18.00;99.90;;;;;;5030189;28;20056;-60
2022/08/18 05:18:52;;;;;;;37.95;23.38;;;17.90;99.90;;;;;;5028898;28;20029;-61
2022/08/18 05:21:19;;;;;;;39.65;21.80;;;18.00;99.90;;;;;;5029474;28;20045;-61
2022/08/18 05:23:47;;;;;;;36.47;21.55;;;18.00;99.90;;;;;;5035656;28;20402;-61
2022/08/18 05:26:14;;;;;;;31.23;20.05;;;18.10;99.90;;;;;;5045152;28;20496;-62
2022/08/18 05:28:40;;;;;;;32.75;19.70;;;18.20;99.90;;;;;;5030393;28;20037;-63
2022/08/18 05:31:18;;;;;;;32.55;19.65;;;18.30;99.90;;;;;;5032858;28;20033;-61
2022/08/18 05:33:45;;;;;;;31.85;19.50;;;18.20;99.90;;;;;;5020424;28;20495;-62
2022/08/18 05:36:50;;;;;;;28.35;17.83;;;18.20;99.90;;;;;;5031637;28;20049;-60
2022/08/18 05:39:44;;;;;;;29.10;17.65;;;18.20;99.90;;;;;;5028633;28;20388;-62
2022/08/18 05:42:19;;;;;;;26.40;16.45;;;18.20;99.90;;;;;;5017808;28;20037;-62
2022/08/18 05:44:49;;;;;;;28.15;17.77;;;18.20;99.90;;;;;;5039528;28;20036;-62
2022/08/18 05:47:23;;;;;;;27.08;16.48;;;18.30;99.90;;;;;;5032063;28;20132;-62
2022/08/18 05:49:49;;;;;;;23.90;15.93;;;18.30;99.90;;;;;;5037430;28;20112;-61
2022/08/18 05:52:18;;;;;;;26.38;17.08;;;18.40;99.90;;;;;;5037911;28;20034;-62
2022/08/18 05:57:50;;;;;;;27.95;16.67;;;18.40;99.90;;;;;;5030500;28;20040;-65
2022/08/18 06:00:19;;;;;;;31.02;17.30;;;18.50;99.90;;;;;;5036120;28;20171;-62
2022/08/18 06:03:19;;;;;;;26.77;16.63;;;18.50;99.90;;;;;;5039363;28;20040;-62
2022/08/18 06:06:09;;;;;;;25.95;16.02;;;18.50;99.90;;;;;;5032277;28;20038;-62
2022/08/18 06:09:05;;;;;;;30.70;16.77;;;18.50;99.90;;;;;;5012332;28;20044;-62
2022/08/18 06:11:31;;;;;;;30.67;17.92;;;18.40;99.90;;;;;;5026010;28;20500;-60
2022/08/18 06:13:57;;;;;;;29.67;17.48;;;18.30;99.90;;;;;;5027925;28;20065;-60
2022/08/18 06:16:35;;;;;;;26.90;17.00;;;18.30;99.90;;;;;;5038596;28;20029;-60
2022/08/18 06:19:06;;;;;;;40.72;18.15;;;18.30;99.90;;;;;;5032676;28;20156;-60
2022/08/18 06:21:49;;;;;;;26.63;16.50;;;18.30;99.90;;;;;;5025038;28;20045;-60
2022/08/18 06:24:33;;;;;;;27.05;17.15;;;18.40;99.90;;;;;;5027016;28;20041;-60
2022/08/18 06:27:30;;;;;;;29.42;16.98;;;18.40;99.90;;;;;;5033822;28;20036;-61
2022/08/18 06:30:09;;;;;;;31.10;17.63;;;18.40;99.90;;;;;;5026871;28;20029;-61
2022/08/18 06:33:01;;;;;;;30.75;18.85;;;18.40;99.90;;;;;;5035309;28;20105;-61
2022/08/18 06:35:37;;;;;;;29.48;18.92;;;18.40;99.90;;;;;;5026179;28;20021;-61
2022/08/18 06:38:40;;;;;;;32.65;19.55;;;18.40;99.90;;;;;;5031682;28;20108;-61
2022/08/18 06:41:14;;;;;;;33.83;19.02;;;18.50;99.90;;;;;;5030751;28;20037;-61
2022/08/18 06:44:02;;;;;;;33.35;19.63;;;18.60;99.90;;;;;;5026140;28;20483;-61
2022/08/18 06:46:46;;;;;;;32.50;20.05;;;18.60;99.90;;;;;;5041614;28;20139;-61
2022/08/18 06:49:35;;;;;;;33.60;20.52;;;18.70;99.90;;;;;;5026450;28;20103;-61
2022/08/18 06:52:21;;;;;;;31.98;19.42;;;18.70;99.90;;;;;;5013938;28;20225;-61
2022/08/18 06:54:48;;;;;;;29.20;17.88;;;18.80;99.90;;;;;;5034702;28;20065;-61
2022/08/18 06:57:34;;;;;;;27.63;17.77;;;18.80;99.90;;;;;;5026033;28;20050;-61
2022/08/18 07:00:06;;;;;;;31.10;17.75;;;18.80;99.90;;;;;;5022867;28;20029;-60
2022/08/18 07:02:44;;;;;;;29.08;17.30;;;18.90;99.90;;;;;;5022267;28;20811;-61
2022/08/18 07:05:13;;;;;;;27.42;16.33;;;19.00;99.90;;;;;;5025983;28;20478;-61
2022/08/18 07:07:40;;;;;;;29.23;16.08;;;19.00;99.90;;;;;;5033620;28;20112;-61
2022/08/18 07:10:15;;;;;;;25.67;15.40;;;19.00;99.90;;;;;;5028107;28;20490;-61
2022/08/18 07:12:41;;;;;;;22.88;14.20;;;19.10;99.90;;;;;;5028439;28;20479;-61
2022/08/18 07:15:10;;;;;;;24.80;14.68;;;19.20;99.90;;;;;;5028666;28;20029;-61
2022/08/18 07:17:37;;;;;;;25.65;14.52;;;19.10;99.90;;;;;;5036502;28;20039;-61
2022/08/18 07:20:09;;;;;;;24.65;14.55;;;19.20;99.90;;;;;;5028249;28;20056;-60
2022/08/18 07:23:03;;;;;;;23.55;14.63;;;19.30;99.90;;;;;;5023676;28;20128;-61
2022/08/18 07:25:39;;;;;;;22.95;14.95;;;19.30;99.90;;;;;;5022425;28;20112;-60
2022/08/18 07:28:06;;;;;;;22.08;14.32;;;19.40;99.90;;;;;;5022090;28;20603;-61
2022/08/18 07:30:35;;;;;;;22.17;14.18;;;19.40;99.90;;;;;;5027218;28;20029;-62
2022/08/18 07:33:05;;;;;;;26.92;14.50;;;19.50;99.90;;;;;;5028210;28;20117;-61
2022/08/18 07:35:38;;;;;;;24.85;14.27;;;19.40;99.90;;;;;;5042939;28;20025;-61
2022/08/18 07:38:18;;;;;;;22.73;14.23;;;19.50;99.90;;;;;;5044192;28;20021;-61
2022/08/18 07:40:57;;;;;;;20.13;13.15;;;19.50;99.90;;;;;;5014290;28;20436;-61
2022/08/18 07:43:32;;;;;;;20.25;12.85;;;19.60;99.90;;;;;;5026393;28;20476;-62
2022/08/18 07:46:05;;;;;;;21.23;13.77;;;19.70;99.90;;;;;;5022504;28;20060;-61
2022/08/18 07:48:33;;;;;;;24.75;14.80;;;19.90;99.90;;;;;;5045024;28;20117;-61
2022/08/18 07:51:06;;;;;;;21.40;13.85;;;20.10;99.90;;;;;;5027472;28;20384;-61
2022/08/18 07:53:50;;;;;;;25.58;14.25;;;20.10;99.90;;;;;;5033031;28;20156;-61
2022/08/18 07:56:42;;;;;;;19.13;13.23;;;20.10;99.90;;;;;;5039212;28;20383;-61
2022/08/18 07:59:29;;;;;;;25.13;15.05;;;20.20;99.90;;;;;;5025439;28;20715;-61
2022/08/18 08:02:21;;;;;;;25.92;15.25;;;20.40;99.90;;;;;;5032921;28;20068;-61
2022/08/18 08:05:11;;;;;;;24.45;15.35;;;20.50;99.90;;;;;;5032166;28;20040;-61
2022/08/18 08:07:48;;;;;;;25.10;14.85;;;20.40;99.90;;;;;;5025304;28;20021;-61
2022/08/18 08:10:35;;;;;;;21.45;14.63;;;20.30;99.90;;;;;;5049173;28;20307;-61
2022/08/18 08:13:12;;;;;;;35.13;14.77;;;20.30;99.90;;;;;;5039346;28;20057;-60
2022/08/18 08:15:55;;;;;;;25.50;14.43;;;20.30;99.90;;;;;;5028306;28;20458;-61
2022/08/18 08:18:43;;;;;;;21.55;13.88;;;20.20;99.90;;;;;;5034899;28;20491;-58
2022/08/18 08:21:17;;;;;;;20.85;14.30;;;20.10;99.90;;;;;;5027108;28;20599;-58
2022/08/18 08:24:09;;;;;;;23.08;14.40;;;20.00;99.90;;;;;;5034846;28;20131;-57
2022/08/18 08:26:48;;;;;;;23.35;13.38;;;19.80;99.90;;;;;;5040627;28;20041;-59
2022/08/18 08:29:47;;;;;;;24.88;15.18;;;19.70;99.90;;;;;;5031623;28;20515;-59
2022/08/18 08:32:35;;;;;;;21.45;14.23;;;19.70;99.90;;;;;;5003735;28;20045;-59
2022/08/18 08:35:13;;;;;;;25.67;14.70;;;19.70;99.90;;;;;;5033593;28;20037;-59
2022/08/18 08:37:53;;;;;;;25.20;14.30;;;19.60;99.90;;;;;;5031012;28;20064;-59
2022/08/18 08:40:52;;;;;;;23.05;14.65;;;19.70;99.90;;;;;;5030867;28;20075;-59
2022/08/18 08:43:39;;;;;;;22.25;14.25;;;19.80;99.90;;;;;;5026387;28;20033;-59
2022/08/18 08:46:19;;;;;;;20.67;14.57;;;19.70;99.90;;;;;;5030060;28;20060;-59
2022/08/18 08:48:55;;;;;;;23.02;14.85;;;19.70;99.90;;;;;;5031455;28;20034;-59
2022/08/18 08:52:03;;;;;;;24.02;14.05;;;19.80;99.90;;;;;;5044775;28;20032;-59
2022/08/18 08:54:37;;;;;;;23.35;14.07;;;19.90;99.90;;;;;;5039228;28;20095;-59
2022/08/18 08:57:04;;;;;;;18.83;12.98;;;19.90;99.90;;;;;;5029866;28;20030;-59
2022/08/18 08:59:30;;;;;;;22.38;13.85;;;20.10;99.90;;;;;;5034474;28;20056;-59
2022/08/18 09:02:20;;;;;;;24.30;13.52;;;20.30;99.90;;;;;;5033522;28;20476;-59
2022/08/18 09:04:51;;;;;;;25.23;14.80;;;20.50;99.90;;;;;;5017540;28;20030;-59
2022/08/18 09:07:46;;;;;;;24.08;14.82;;;20.60;99.90;;;;;;5034635;28;20036;-59
2022/08/18 09:10:38;;;;;;;22.75;13.23;;;20.50;99.90;;;;;;5051189;28;20036;-59
2022/08/18 09:13:37;;;;;;;20.23;13.13;;;20.50;99.90;;;;;;5025700;28;20041;-59
2022/08/18 09:16:22;;;;;;;19.17;12.48;;;20.40;99.90;;;;;;5030192;28;20104;-59
2022/08/18 09:18:56;;;;;;;20.15;13.05;;;20.60;99.90;;;;;;5038904;28;20037;-59
2022/08/18 09:21:30;;;;;;;22.95;12.80;;;20.80;99.90;;;;;;5030585;28;20550;-59
2022/08/18 09:24:13;;;;;;;20.13;12.90;;;21.10;99.90;;;;;;5048765;28;20037;-59
2022/08/18 09:26:41;;;;;;;21.02;13.90;;;21.00;99.90;;;;;;5030358;28;20025;-59
2022/08/18 09:29:44;;;;;;;20.85;13.40;;;20.90;99.90;;;;;;5030202;28;20081;-59
2022/08/18 09:32:19;;;;;;;19.70;13.20;;;21.00;99.90;;;;;;5010917;28;20447;-59
2022/08/18 09:35:12;;;;;;;21.30;13.80;;;21.20;99.90;;;;;;5027679;28;20060;-59
2022/08/18 09:44:10;;;;;;;19.58;12.77;;;21.50;99.90;;;;;;5028762;28;20103;-59
2022/08/18 09:46:42;;;;;;;20.52;12.93;;;21.60;99.90;;;;;;5028923;28;20045;-59
2022/08/18 09:49:26;;;;;;;21.30;13.57;;;21.70;99.90;;;;;;5028908;28;20037;-59
2022/08/18 09:51:54;;;;;;;18.45;13.27;;;21.90;99.90;;;;;;5030105;28;20487;-59
2022/08/18 09:54:23;;;;;;;19.65;13.50;;;21.90;99.90;;;;;;5030779;28;20033;-59
2022/08/18 09:56:49;;;;;;;21.83;13.63;;;21.70;99.90;;;;;;5029695;28;20033;-59
2022/08/18 09:59:33;;;;;;;17.42;12.35;;;21.60;99.90;;;;;;5020647;28;20037;-59
2022/08/18 10:01:59;;;;;;;18.08;13.18;;;21.40;99.90;;;;;;5023778;28;20144;-59
2022/08/18 10:04:27;;;;;;;20.92;13.75;;;21.40;99.90;;;;;;5035716;28;20029;-59
2022/08/18 10:06:54;;;;;;;21.65;14.02;;;21.30;99.90;;;;;;5029322;28;20388;-59
2022/08/18 10:09:26;;;;;;;22.10;14.27;;;21.30;99.90;;;;;;5029790;28;20029;-59
2022/08/18 10:11:52;;;;;;;19.23;13.43;;;21.20;99.90;;;;;;5048844;28;20060;-59
2022/08/18 10:14:31;;;;;;;25.08;14.73;;;21.30;99.90;;;;;;5036132;28;20061;-59
2022/08/18 10:17:03;;;;;;;22.85;14.35;;;21.40;99.90;;;;;;5028122;28;20044;-60
2022/08/18 10:19:37;;;;;;;20.90;13.98;;;21.50;99.90;;;;;;5029998;28;20060;-60
2022/08/18 10:22:06;;;;;;;22.23;14.00;;;21.50;99.90;;;;;;5028157;28;20492;-59
2022/08/18 10:24:34;;;;;;;21.42;14.63;;;21.50;99.90;;;;;;5028322;28;20466;-59
2022/08/18 10:27:09;;;;;;;19.60;13.48;;;21.60;99.90;;;;;;5026166;28;20037;-59
2022/08/18 10:29:50;;;;;;;21.42;14.18;;;21.60;99.90;;;;;;5029594;28;20038;-59
2022/08/18 10:32:22;;;;;;;25.25;15.25;;;21.70;99.90;;;;;;5027546;28;20029;-60
2022/08/18 10:34:54;;;;;;;20.02;14.38;;;21.80;99.90;;;;;;5043939;28;20032;-60
2022/08/18 10:37:41;;;;;;;23.08;14.07;;;21.90;99.90;;;;;;5028473;28;20041;-60
2022/08/18 10:40:09;;;;;;;19.38;13.73;;;21.90;99.90;;;;;;5028709;28;20022;-60
2022/08/18 10:42:54;;;;;;;28.10;16.15;;;22.10;99.90;;;;;;5029623;28;20049;-60
2022/08/18 10:45:24;;;;;;;23.50;15.20;;;22.10;99.90;;;;;;5044501;28;20057;-61
2022/08/18 10:48:22;;;;;;;25.80;14.77;;;22.30;99.90;;;;;;5033781;28;20029;-60
2022/08/18 10:51:06;;;;;;;20.50;13.65;;;22.50;99.90;;;;;;5028456;28;20044;-60
2022/08/18 10:53:57;;;;;;;24.77;15.05;;;22.70;99.90;;;;;;5026500;28;20061;-60
2022/08/18 10:56:44;;;;;;;24.02;14.32;;;23.10;99.90;;;;;;5028047;28;20083;-60
2022/08/18 10:59:33;;;;;;;21.70;13.70;;;23.50;99.90;;;;;;5033146;28;20087;-59
2022/08/18 11:02:23;;;;;;;25.52;14.70;;;23.70;99.90;;;;;;5028145;28;20041;-60
2022/08/18 11:04:52;;;;;;;21.67;14.70;;;23.50;99.90;;;;;;5029296;28;20495;-60
2022/08/18 11:07:23;;;;;;;24.33;15.13;;;23.30;99.90;;;;;;5027866;28;20109;-59
2022/08/18 11:09:52;;;;;;;26.08;14.63;;;23.30;99.90;;;;;;5030265;28;20387;-59
2022/08/18 11:12:41;;;;;;;17.48;12.45;;;23.30;99.90;;;;;;5030183;28;20029;-60
2022/08/18 11:15:26;;;;;;;20.58;13.23;;;23.50;99.90;;;;;;5020296;28;20108;-60
2022/08/18 11:17:58;;;;;;;24.45;15.00;;;23.70;99.90;;;;;;5029780;28;20759;-60
2022/08/18 11:20:29;;;;;;;22.98;14.75;;;23.70;99.90;;;;;;5025239;28;20026;-60
2022/08/18 11:22:58;;;;;;;22.08;14.13;;;23.90;99.90;;;;;;5037254;28;20107;-60
2022/08/18 11:25:33;;;;;;;19.87;14.70;;;24.20;99.90;;;;;;5030474;28;20040;-59
2022/08/18 11:28:00;;;;;;;22.35;14.57;;;24.20;99.90;;;;;;5027640;28;20276;-60
2022/08/18 11:30:31;;;;;;;21.38;13.93;;;24.40;99.90;;;;;;5027404;28;20021;-59
2022/08/18 11:32:57;;;;;;;18.70;14.13;;;24.50;99.90;;;;;;5034058;28;20044;-60
2022/08/18 11:35:33;;;;;;;19.05;13.45;;;24.80;99.90;;;;;;5028938;28;20021;-59
2022/08/18 11:38:10;;;;;;;18.23;13.63;;;25.00;99.90;;;;;;5027649;28;20026;-60
2022/08/18 11:40:40;;;;;;;17.13;13.07;;;25.10;99.90;;;;;;5043536;28;20041;-59
2022/08/18 11:43:06;;;;;;;;;;;25.10;99.90;;;;;;5015327;28;20487;-60
2022/08/18 11:45:51;;;;;;;18.90;11.90;;;25.00;99.90;;;;;;5028484;28;19992;-60
2022/08/18 11:48:19;;;;;;;22.90;13.98;;;25.00;99.90;;;;;;5026562;28;20056;-59
2022/08/18 11:50:54;;;;;;;21.38;14.32;;;25.00;99.90;;;;;;5028107;28;20407;-59
2022/08/18 11:53:35;;;;;;;15.98;12.05;;;24.90;99.90;;;;;;5026621;28;20272;-60
2022/08/18 11:56:24;;;;;;;15.60;12.40;;;24.90;99.90;;;;;;5026396;28;20029;-59
2022/08/18 11:59:02;;;;;;;18.88;11.93;;;24.90;99.90;;;;;;5027719;28;20030;-60
2022/08/18 12:01:48;;;;;;;20.98;11.77;;;24.90;99.90;;;;;;5030960;28;20038;-59
2022/08/18 12:04:41;;;;;;;16.73;12.00;;;24.90;99.90;;;;;;5043036;28;20021;-59
2022/08/18 12:07:13;;;;;;;15.13;10.52;;;24.80;99.90;;;;;;5030942;28;20065;-60
2022/08/18 12:09:45;;;;;;;17.55;11.35;;;25.00;99.90;;;;;;5029140;28;20112;-59
2022/08/18 12:12:26;;;;;;;15.60;11.20;;;25.30;99.90;;;;;;5032182;28;20037;-60
2022/08/18 12:14:59;;;;;;;17.77;10.98;;;25.80;99.90;;;;;;5030668;28;20087;-60
2022/08/18 12:17:26;;;;;;;14.77;10.68;;;26.20;99.90;;;;;;5031503;28;20037;-60
2022/08/18 12:19:52;;;;;;;16.33;11.50;;;26.70;99.90;;;;;;5032239;28;20540;-60
2022/08/18 12:22:27;;;;;;;14.95;11.05;;;26.80;99.90;;;;;;5029696;28;20052;-60
2022/08/18 12:24:53;;;;;;;15.52;11.05;;;26.50;99.90;;;;;;5032839;28;20033;-60
2022/08/18 12:27:22;;;;;;;15.02;10.90;;;26.50;99.90;;;;;;5030657;28;20079;-60
2022/08/18 12:29:52;;;;;;;13.52;10.45;;;26.60;99.90;;;;;;5030799;28;20388;-59
2022/08/18 12:32:22;;;;;;;14.05;10.90;;;26.70;99.90;;;;;;5030853;28;20043;-60
2022/08/18 12:34:48;;;;;;;13.65;10.48;;;26.90;99.90;;;;;;5030717;28;20096;-60
2022/08/18 12:37:20;;;;;;;12.25;9.88;;;27.10;99.90;;;;;;5037509;28;20057;-60
2022/08/18 12:39:46;;;;;;;13.05;10.70;;;27.40;99.90;;;;;;5043486;28;20079;-59
2022/08/18 12:42:12;;;;;;;14.38;10.77;;;27.30;99.90;;;;;;5045981;28;20511;-60
2022/08/18 12:44:40;;;;;;;14.30;10.27;;;27.30;99.90;;;;;;5043589;28;20038;-60
2022/08/18 12:47:24;;;;;;;13.63;9.48;;;27.20;99.90;;;;;;5028644;28;20061;-60
2022/08/18 12:49:50;;;;;;;14.98;10.00;;;27.40;99.90;;;;;;5030825;28;20033;-59
2022/08/18 12:52:17;;;;;;;15.45;10.73;;;27.70;99.90;;;;;;5029019;28;20033;-59
2022/08/18 12:54:45;;;;;;;21.48;10.68;;;28.00;99.20;;;;;;5032444;28;20369;-60
2022/08/18 12:57:21;;;;;;;13.95;10.55;;;28.20;98.90;;;;;;5036482;28;20039;-60
2022/08/18 12:59:47;;;;;;;20.13;10.73;;;28.60;97.90;;;;;;5033870;28;20776;-60
2022/08/18 13:02:13;;;;;;;11.70;9.15;;;28.30;97.20;;;;;;5041708;28;20045;-60
2022/08/18 13:04:39;;;;;;;20.17;10.77;;;27.90;98.50;;;;;;5031535;28;20108;-59
2022/08/18 13:07:06;;;;;;;15.20;10.68;;;27.40;97.90;;;;;;5044343;28;20040;-59
2022/08/18 13:09:34;;;;;;;14.55;10.68;;;26.90;99.50;;;;;;5030710;28;20030;-59
2022/08/18 13:11:59;;;;;;;13.80;10.95;;;27.10;98.90;;;;;;5030617;28;20776;-59
2022/08/18 13:14:25;;;;;;;14.05;9.93;;;27.10;97.80;;;;;;5031297;28;20021;-60
2022/08/18 13:16:51;;;;;;;14.63;10.55;;;27.10;98.90;;;;;;5031520;28;20109;-60